CCGS Louis S. St-Laurent — CGBN — position and weather

sailwx.info

Track history (hours):
 
Tides and Currents Weather Stations Pressure Air Temp Water Temp Dewpoint Dewpoint Depression Visibility Wind Speed Wind Dir Waves Ship Positions

Oceanographic research ship CCGS Louis S. St-Laurent (Canada)

Detailed information on ship capabilities available from ARCUS's ALIAS (Arctic Logistics Information and Support) project.

Last reported at 2018-Feb-25 23:00 UTC. Time now 2018-Feb-25 23:46 UTC.
Position N 48°30' W 061°42'.

Length 119.63 m; beam 24.38 m; draft 9.9 m.

MMSI: 316165000.

Wind from 130 at 12 knots

Barometer 1028.6 mb
Air temperature -8.2 ° C
Dewpoint -12.3 ° C

Date/timePositionNaut miles runAvg speedWind from/ knotsBaromVisibWave heightAir tempDewpointWater temp
2018-Feb-25 23:00N 48°30' W 061°42'2019.9 130 / 121028.6 -8.2-12.3
2018-Feb-25 22:00N 48°42' W 062°06'4 4.0 130 / 181028.8 -8.4-13.0
2018-Feb-25 21:00N 48°42' W 062°00'4 4.0 130 / 91030.0 -7.8-13.2
2018-Feb-25 20:00N 48°42' W 062°06'4 4.0 090 / 71030.2 -5.1-12.4
2018-Feb-25 19:00N 48°42' W 062°00'0 0.0 090 / 11031.1 -5.5-12.3
2018-Feb-25 18:00N 48°42' W 062°00'8 7.9 100 / 51032.0 -8.2-13.3
2018-Feb-25 17:00N 48°42' W 062°12'2221.6 060 / 51031.9 -9.0-13.6
2018-Feb-25 16:00N 48°24' W 062°30'1414.4 050 / 71031.9 -9.3-13.7
2018-Feb-25 15:00N 48°12' W 062°42'1414.4 040 / 101032.2 -9.0-13.8
2018-Feb-25 14:00N 48°00' W 062°54'0 0.0 020 / 41032.4 -6.1-13.4
2018-Feb-25 13:00N 48°00' W 062°54'0 0.0 020 / 61032.2 -8.2-13.9
2018-Feb-25 12:00N 48°00' W 062°54'0 0.0 010 / 11031.9 -7.9-13.9
2018-Feb-25 11:00N 48°00' W 062°54'0 0.0 010 / 11031.3 -8.9-14.1
2018-Feb-25 10:00N 48°00' W 062°54'0 0.0 1030.9 -8.4-13.6
2018-Feb-25 09:00N 48°00' W 062°54'6 6.0 240 / 11030.0 -8.2-13.8
2018-Feb-25 08:00N 48°06' W 062°54'0 0.0 360 / 21028.0 -8.0-13.7
2018-Feb-25 07:00N 48°06' W 062°54'0 0.0 350 / 21026.9 -7.6-13.0
2018-Feb-25 06:00N 48°06' W 062°54'0 0.0 360 / 21026.1 -7.0-12.5
2018-Feb-25 05:00N 48°06' W 062°54'0 0.0 360 / 21024.8 -5.2-10.7
2018-Feb-25 04:00N 48°06' W 062°54'0 0.0 010 / 31023.2 -4.3-9.7
2018-Feb-25 03:00N 48°06' W 062°54'0 0.0 270 / 11021.1 -3.6-9.3
2018-Feb-25 02:00N 48°06' W 062°54'0 0.0 280 / 11019.6 -3.3-7.0
2018-Feb-25 01:00N 48°06' W 062°54'0 0.0 310 / 11017.2 -2.5-6.7
2018-Feb-24 23:00N 48°06' W 062°54'0 0.0 280 / 11014.9 -1.9-7.2
2018-Feb-24 22:00N 48°06' W 062°54'0 0.0 270 / 21013.1 -1.5-6.9
2018-Feb-24 21:00N 48°06' W 062°54'6 6.0 290 / 11011.8 -1.6-6.2
2018-Feb-24 20:00N 48°12' W 062°54'1212.0 280 / 21010.6 0.7-5.1
2018-Feb-24 19:00N 48°12' W 063°12'1717.0 310 / 191009.7 -0.6-5.9
2018-Feb-24 18:00N 48°24' W 063°30'1717.0 320 / 151008.8 -0.4-6.0
2018-Feb-24 17:00N 48°30' W 063°54'1414.4 310 / 191008.4 0.3-5.8
2018-Feb-24 16:00N 48°42' W 064°06'1313.3 310 / 221007.8 -0.7-6.2
2018-Feb-24 15:00N 48°48' W 064°24'0 0.0 270 / 91006.7 -0.7-6.4
2018-Feb-24 14:00N 48°48' W 064°24'0 0.0 300 / 131006.6 -3.3-5.7
2018-Feb-24 13:00N 48°48' W 064°24'0 0.0 280 / 51005.9 -5.7-7.8
2018-Feb-24 12:00N 48°48' W 064°24'0 0.0 280 / 41005.6 -6.9-8.5
2018-Feb-24 11:00N 48°48' W 064°24'0 0.0 1005.0 -5.7-8.0
2018-Feb-24 10:00N 48°48' W 064°24'0 0.0 1005.3 -4.7-7.5
2018-Feb-24 09:00N 48°48' W 064°24'0 0.0 050 / 11005.7 -4.1-7.0
2018-Feb-24 08:00N 48°48' W 064°24'0 0.0 250 / 61006.8 -4.3-7.7
2018-Feb-24 07:00N 48°48' W 064°24'0 0.0 020 / 21008.5 -4.1-7.7
2018-Feb-24 06:00N 48°48' W 064°24'0 0.0 240 / 91009.8 -4.2-8.0
2018-Feb-24 04:00N 48°48' W 064°24'0 0.0 190 / 11015.3 -5.0-7.9
2018-Feb-24 03:00N 48°48' W 064°24'0 0.0 310 / 51017.9 -5.7-7.5
2018-Feb-24 02:00N 48°48' W 064°24'0 0.0 280 / 51019.9 -4.0-12.6
2018-Feb-24 01:00N 48°48' W 064°24'0 0.0 260 / 61021.0 -3.8-12.9
2018-Feb-24 00:00N 48°48' W 064°24'0 0.0
2018-Feb-23 23:00N 48°48' W 064°24'0 0.0 230 / 31025.1 -3.9-12.5
2018-Feb-23 22:00N 48°48' W 064°24'0 0.0 190 / 61025.9 -3.3-12.2
2018-Feb-23 21:00N 48°48' W 064°24'0 0.0 110 / 61027.4 -3.3-11.8
2018-Feb-23 20:00N 48°48' W 064°24'0 0.0 090 / 101029.7 -5.0-9.9
2018-Feb-23 19:00N 48°48' W 064°24'0 0.0 110 / 111031.4 -4.8-13.0
2018-Feb-23 18:00N 48°48' W 064°24'0 0.0 110 / 131033.4 -5.7-12.8
2018-Feb-23 17:00N 48°48' W 064°24'0 0.0 110 / 81034.9 -6.1-14.7
2018-Feb-23 16:00N 48°48' W 064°24'0 0.0 060 / 11036.0 -4.0-13.6
2018-Feb-23 15:00N 48°48' W 064°24'0 0.0 290 / 31037.1 -7.8-16.3
2018-Feb-23 14:00N 48°48' W 064°24'0 0.0 250 / 81037.9 -9.6-16.9
2018-Feb-23 13:00N 48°48' W 064°24'0 0.0 260 / 61038.2 -11.6-17.4
2018-Feb-23 12:00N 48°48' W 064°24'0 0.0 260 / 91037.7 -11.5-17.3
2018-Feb-23 11:00N 48°48' W 064°24'0 0.0 270 / 91037.6 -11.1-16.9
2018-Feb-23 10:00N 48°48' W 064°24'0 0.0 290 / 81038.0 -11.1-16.8
2018-Feb-23 09:00N 48°48' W 064°24'0 0.0 240 / 11037.8 -13.5-17.6
2018-Feb-23 08:00N 48°48' W 064°24'0 0.0 080 / 11037.7 -14.6-18.4
2018-Feb-23 07:00N 48°48' W 064°24'0 0.0 250 / 71037.5 -11.3-16.9
2018-Feb-23 06:00N 48°48' W 064°24'0 0.0 290 / 31037.5 -14.7-18.6
2018-Feb-23 05:00N 48°48' W 064°24'0 0.0 270 / 81037.0 -11.4-17.0
2018-Feb-23 04:00N 48°48' W 064°24'0 0.0 280 / 21036.7 -12.5-17.7
2018-Feb-23 03:00N 48°48' W 064°24'0 0.0 270 / 71035.9 -10.1-17.0
2018-Feb-23 02:00N 48°48' W 064°24'0 0.0 280 / 101035.1 -9.5-17.0
2018-Feb-23 01:00N 48°48' W 064°24'0 0.0 280 / 121035.1 -9.0-17.3
2018-Feb-23 00:00N 48°48' W 064°24'0 0.0 290 / 91035.3 -8.8-17.3
2018-Feb-22 23:00N 48°48' W 064°24'0 0.0 340 / 121034.6 -8.6-16.8
2018-Feb-22 22:00N 48°48' W 064°24'0 0.0 320 / 111033.5 -7.4-16.5
2018-Feb-22 21:00N 48°48' W 064°24'0 0.0 320 / 121033.1 -6.2-16.6
2018-Feb-22 20:00N 48°48' W 064°24'0 0.0 320 / 181032.9 -5.6-16.4
2018-Feb-22 19:00N 48°48' W 064°24'0 0.0 310 / 161032.5 -5.2-15.5
2018-Feb-22 18:00N 48°48' W 064°24'0 0.0 310 / 161032.8 -5.6-15.5
2018-Feb-22 17:00N 48°48' W 064°24'0 0.0 310 / 121033.3 -6.8-15.0
2018-Feb-22 16:00N 48°48' W 064°24'0 0.0 310 / 81034.1 -8.9-15.8
2018-Feb-22 15:00N 48°48' W 064°24'0 0.0 310 / 131034.6 -10.6-16.9
2018-Feb-22 14:00N 48°48' W 064°24'0 0.0 310 / 191034.5 -11.5-17.4
2018-Feb-22 12:00N 48°48' W 064°24'0 0.0 310 / 161033.9 -12.2-17.8
2018-Feb-22 11:00N 48°48' W 064°24'0 0.0 310 / 221032.8 -12.2-18.1
2018-Feb-22 10:00N 48°48' W 064°24'0 0.0 310 / 121032.1 -11.3-16.7
2018-Feb-22 09:00N 48°48' W 064°24'0 0.0 290 / 121030.3 -11.2-17.2
2018-Feb-22 08:00N 48°48' W 064°24'0 0.0 300 / 241027.8 -10.9-17.1
2018-Feb-22 07:00N 48°48' W 064°24'0 0.0 300 / 231026.5 -10.3-16.9
2018-Feb-22 06:00N 48°48' W 064°24'0 0.0 300 / 131024.8 -9.4-15.8
2018-Feb-22 05:00N 48°48' W 064°24'0 0.0 310 / 331020.5 -8.1-14.3
2018-Feb-22 04:00N 48°48' W 064°24'0 0.0 310 / 371018.3 -6.2-13.2
2018-Feb-22 03:00N 48°48' W 064°24'0 0.0 310 / 381015.9 -4.0-11.6
2018-Feb-22 02:00N 48°48' W 064°24'0 0.0 310 / 381012.3 0.4-7.9
2018-Feb-22 01:00N 48°48' W 064°24'0 0.0 290 / 331010.0 4.6-4.9
2018-Feb-22 00:00N 48°48' W 064°24'0 0.0 280 / 21008.7 -0.1-1.3
2018-Feb-21 23:00N 48°48' W 064°24'0 0.0 170 / 11008.5 0.6-1.0
2018-Feb-21 22:00N 48°48' W 064°24'0 0.0 100 / 101007.6 0.2-1.0
2018-Feb-21 21:00N 48°48' W 064°24'0 0.0 110 / 81006.7 0.8-1.5
2018-Feb-21 20:00N 48°48' W 064°24'0 0.0 100 / 91006.6 -0.4-2.2
2018-Feb-21 19:00N 48°48' W 064°24'0 0.0 110 / 41007.1 1.2-1.9
2018-Feb-21 18:00N 48°48' W 064°24'0 0.0 100 / 31008.5 -0.7-3.4
2018-Feb-21 17:00N 48°48' W 064°24'0 0.0 100 / 31010.4 -1.9-4.5
2018-Feb-21 16:00N 48°48' W 064°24'1313.3 130 / 41012.8 -4.0-5.6
2018-Feb-21 15:00N 48°42' W 064°06'1716.9 180 / 121014.1 -3.9-4.4
2018-Feb-21 14:00N 48°30' W 063°48'0 0.0 160 / 181016.9 -4.4-5.0
2018-Feb-21 13:00N 48°30' W 063°48'4 2.0 200 / 141018.8 -5.0-5.7
2018-Feb-21 11:00N 48°30' W 063°54'0 0.0 140 / 121023.7 -5.9-6.8
2018-Feb-21 10:00N 48°30' W 063°54'0 0.0 130 / 141025.7 -6.0-7.2
2018-Feb-21 09:00N 48°30' W 063°54'0 0.0 120 / 171026.8 -5.9-8.0
2018-Feb-21 08:00N 48°30' W 063°54'0 0.0 110 / 131029.0 -6.4-8.6
2018-Feb-21 07:00N 48°30' W 063°54'6 6.0 120 / 161029.9 -6.5-9.2
2018-Feb-21 06:00N 48°24' W 063°54'0 0.0 120 / 151030.6 -6.7-9.7
2018-Feb-21 05:00N 48°24' W 063°54'0 0.0 100 / 151032.3 -6.9-10.6
2018-Feb-21 04:00N 48°24' W 063°54'0 0.0 100 / 141032.8 -7.0-11.5
2018-Feb-21 03:00N 48°24' W 063°54'0 0.0 100 / 131033.8 -7.0-12.6
2018-Feb-21 02:00N 48°24' W 063°54'0 0.0 110 / 131033.5 -6.7-11.4
2018-Feb-21 00:00N 48°24' W 063°54'6 6.0 060 / 131033.5 -5.7-10.6
2018-Feb-20 23:00N 48°30' W 063°54'7 7.2 090 / 141033.2 -5.6-10.0
2018-Feb-20 22:00N 48°24' W 064°00'8 8.0 030 / 201032.6 -5.3-10.2
2018-Feb-20 21:00N 48°24' W 064°12'1010.0 020 / 231032.1 -6.0-10.5
2018-Feb-20 20:00N 48°18' W 064°24'8 8.0 040 / 261031.1 -5.4-9.8
2018-Feb-20 19:00N 48°18' W 064°36'1010.0 070 / 261029.2 -4.1-8.0
2018-Feb-20 18:00N 48°12' W 064°48'1010.0 080 / 241030.1 -3.6-6.8
2018-Feb-20 17:00N 48°18' W 064°36'1313.4 070 / 211029.8 -2.6-7.1
2018-Feb-20 16:00N 48°24' W 064°18'1010.0 040 / 251030.5 -3.8-8.0
2018-Feb-20 15:00N 48°30' W 064°06'1818.0 360 / 181030.4 -1.9-6.7
2018-Feb-20 14:00N 48°48' W 064°06'1414.4 350 / 171030.8 -2.6-7.7
2018-Feb-20 13:00N 49°00' W 064°18'1716.8 340 / 171029.8 -3.4-7.6
2018-Feb-20 12:00N 49°12' W 064°36'1313.2 350 / 141029.5 -3.9-8.8
2018-Feb-20 11:00N 49°18' W 064°54'1716.7 350 / 101027.7 -2.4-6.5
2018-Feb-20 10:00N 49°24' W 065°18'1211.7 330 / 91026.6 -1.5-4.1
2018-Feb-20 09:00N 49°24' W 065°36'1211.7 310 / 161025.8 -1.3-5.0
2018-Feb-20 08:00N 49°24' W 065°54'1313.2 300 / 101024.6 0.1-2.0
2018-Feb-20 07:00N 49°18' W 066°12'1211.7 230 / 121023.6 0.1-1.0
2018-Feb-20 06:00N 49°18' W 066°30'1716.8 210 / 141023.3 -0.4-1.6
2018-Feb-20 05:00N 49°12' W 066°54'1313.2 240 / 81023.2 -0.1-1.8
2018-Feb-20 04:00N 49°06' W 067°12'8 7.9 250 / 71022.7 -0.0-2.4
2018-Feb-20 03:00N 49°06' W 067°24'2311.5 230 / 131021.9 0.6-2.3
2018-Feb-20 01:00N 48°54' W 067°54'2019.8 210 / 91021.0 1.4-3.1
2018-Feb-20 00:00N 48°42' W 068°18'1717.0 230 / 131020.7 2.6-2.6
2018-Feb-19 23:00N 48°36' W 068°42'1414.4 220 / 201020.6 3.1-3.3
2018-Feb-19 22:00N 48°24' W 068°54'1717.0 220 / 221020.4 2.7-2.9
2018-Feb-19 21:00N 48°18' W 069°18'2020.0 220 / 211020.5 2.2-2.9
2018-Feb-19 20:00N 48°06' W 069°42'1010.0 200 / 201019.9 2.0-3.2
2018-Feb-19 19:00N 48°12' W 069°54'1717.1 190 / 121019.5 6.0-5.7
2018-Feb-19 18:00N 48°18' W 070°18'1313.4 110 / 61020.4 -0.6-4.4
2018-Feb-19 17:00N 48°24' W 070°36'8 8.0 090 / 131021.0 -1.9-4.8
2018-Feb-19 16:00N 48°24' W 070°48'0 0.0 100 / 31022.6 -0.0-3.8
2018-Feb-19 15:00N 48°24' W 070°48'0 0.0 110 / 41023.6 -1.1-4.5
2018-Feb-19 14:00N 48°24' W 070°48'0 0.0 100 / 61025.2 -2.4-4.8
2018-Feb-19 13:00N 48°24' W 070°48'0 0.0 080 / 41025.7 -3.6-5.4
2018-Feb-19 12:00N 48°24' W 070°48'0 0.0 100 / 61026.5 -5.0-6.1
2018-Feb-19 11:00N 48°24' W 070°48'0 0.0 110 / 61027.3 -4.9-6.2
2018-Feb-19 10:00N 48°24' W 070°48'0 0.0 110 / 61027.4 -5.2-6.8
2018-Feb-19 09:00N 48°24' W 070°48'0 0.0 120 / 51027.1 -4.6-9.2
2018-Feb-19 08:00N 48°24' W 070°48'0 0.0 110 / 51027.0 -5.6-9.3
2018-Feb-19 07:00N 48°24' W 070°48'0 0.0 110 / 61027.8 -6.1-9.7
2018-Feb-19 06:00N 48°24' W 070°48'0 0.0 080 / 61028.1 -7.9-10.4
2018-Feb-19 05:00N 48°24' W 070°48'0 0.0 070 / 71028.4 -8.9-11.4
2018-Feb-19 04:00N 48°24' W 070°48'0 0.0 110 / 41028.4 -8.4-10.9
2018-Feb-19 03:00N 48°24' W 070°48'0 0.0 070 / 31027.9 -8.8-11.3
2018-Feb-19 02:00N 48°24' W 070°48'0 0.0 110 / 41027.4 -6.7-10.4
2018-Feb-19 01:00N 48°24' W 070°48'0 0.0 060 / 21026.8 -4.6-9.0
2018-Feb-19 00:00N 48°24' W 070°48'6 6.0 300 / 31025.8 -2.9-8.7
2018-Feb-18 23:00N 48°18' W 070°48'4 4.0 260 / 41024.7 -2.4-7.8
2018-Feb-18 22:00N 48°18' W 070°54'0 0.0 290 / 51023.1 -0.3-7.6
2018-Feb-18 21:00N 48°18' W 070°54'0 0.0 290 / 71021.5 0.1-6.8
2018-Feb-18 20:00N 48°18' W 070°54'0 0.0 160 / 31021.4 -1.3-4.8
2018-Feb-18 19:00N 48°18' W 070°54'0 0.0 150 / 11020.9 -2.6-4.7
2018-Feb-18 18:00N 48°18' W 070°54'0 0.0 090 / 11020.5 -3.6-5.6
2018-Feb-18 17:00N 48°18' W 070°54'0 0.0 070 / 21019.5 -3.2-5.8
2018-Feb-18 16:00N 48°18' W 070°54'0 0.0 1019.4 -4.1-6.5
2018-Feb-18 15:00N 48°18' W 070°54'0 0.0 150 / 11018.3 -5.4-8.3
2018-Feb-18 14:00N 48°18' W 070°54'0 0.0 130 / 11017.4 -7.0-10.9
2018-Feb-18 13:00N 48°18' W 070°54'0 0.0 1016.4 -7.1-11.0
2018-Feb-18 12:00N 48°18' W 070°54'0 0.0 270 / 21015.5 -7.1-11.4
2018-Feb-18 11:00N 48°18' W 070°54'0 0.0 300 / 21014.3 -7.7-11.6
2018-Feb-18 10:00N 48°18' W 070°54'0 0.0 120 / 21013.8 -8.5-13.3
2018-Feb-18 09:00N 48°18' W 070°54'0 0.0 110 / 41013.4 -9.0-13.6
2018-Feb-18 08:00N 48°18' W 070°54'0 0.0 120 / 41013.6 -8.6-14.1
2018-Feb-18 07:00N 48°18' W 070°54'0 0.0 120 / 61013.9 -8.2-13.6
2018-Feb-18 06:00N 48°18' W 070°54'0 0.0 120 / 31014.1 -8.2-13.4
2018-Feb-18 05:00N 48°18' W 070°54'4 4.0 090 / 21015.0 -6.2-11.9
2018-Feb-18 04:00N 48°18' W 070°48'0 0.0 070 / 161015.6 -7.1-12.6
2018-Feb-18 03:00N 48°18' W 070°48'0 0.0 070 / 151016.6 -7.1-12.8
2018-Feb-18 02:00N 48°18' W 070°48'0 0.0 070 / 141017.2 -7.0-12.7
2018-Feb-18 01:00N 48°18' W 070°48'0 0.0 070 / 131017.6 -7.6-12.1
2018-Feb-18 00:00N 48°18' W 070°48'0 0.0 070 / 151017.9 -7.5-12.8
2018-Feb-17 23:00N 48°18' W 070°48'0 0.0 070 / 151018.1 -7.1-14.0
2018-Feb-17 22:00N 48°18' W 070°48'0 0.0 070 / 151018.9 -7.1-14.9
2018-Feb-17 21:00N 48°18' W 070°48'0 0.0 070 / 151019.9 -7.3-15.1
2018-Feb-17 20:00N 48°18' W 070°48'7 7.2 070 / 171020.7 -9.0-15.1
2018-Feb-17 19:00N 48°24' W 070°42'4 4.0 160 / 61021.4 -6.6-15.2
2018-Feb-17 18:00N 48°24' W 070°48'0 0.0 100 / 21023.3 -9.3-15.0
2018-Feb-17 17:00N 48°24' W 070°48'7 7.2 050 / 121024.7 -13.2-17.1
2018-Feb-17 16:00N 48°18' W 070°54'17 8.5 080 / 131026.1 -14.2-17.9
2018-Feb-17 14:00N 48°24' W 070°30'1010.0 080 / 41027.4 -19.0-21.5
2018-Feb-17 13:00N 48°18' W 070°18'8 8.0 320 / 41026.9 -18.1-21.3
2018-Feb-17 12:00N 48°18' W 070°06'0 0.0 250 / 51026.4 -17.7-20.9
2018-Feb-17 11:00N 48°18' W 070°06'8 8.0 280 / 51025.3 -16.9-20.5
2018-Feb-17 10:00N 48°18' W 070°18'1010.0 340 / 31024.6 -16.7-20.4
2018-Feb-17 09:00N 48°24' W 070°30'8 8.0 300 / 11023.5 -16.9-20.4
2018-Feb-17 08:00N 48°24' W 070°42'7 7.2 340 / 31022.4 -16.5-20.4
2018-Feb-17 07:00N 48°18' W 070°48'4 4.0 270 / 41022.1 -15.0-19.1
2018-Feb-17 06:00N 48°18' W 070°54'0 0.0 260 / 51021.3 -14.7-18.7
2018-Feb-17 05:00N 48°18' W 070°54'0 0.0 280 / 71020.9 -14.9-20.1
2018-Feb-17 04:00N 48°18' W 070°54'0 0.0 270 / 81020.3 -14.2-19.9
2018-Feb-17 03:00N 48°18' W 070°54'0 0.0 270 / 101018.6 -13.7-19.2
2018-Feb-17 02:00N 48°18' W 070°54'0 0.0 240 / 131016.8 -13.3-19.5
2018-Feb-17 01:00N 48°18' W 070°54'0 0.0 160 / 11015.3 -12.7-18.8
2018-Feb-17 00:00N 48°18' W 070°54'0 0.0 150 / 11014.0 -12.1-18.8
2018-Feb-16 23:00N 48°18' W 070°54'0 0.0 210 / 11012.5 -11.3-18.9
2018-Feb-16 22:00N 48°18' W 070°54'0 0.0 240 / 21010.8 -10.8-19.1
2018-Feb-16 21:00N 48°18' W 070°54'0 0.0 190 / 11009.7 -9.7-18.4
2018-Feb-16 20:00N 48°18' W 070°54'4 4.0 250 / 21008.8 -9.5-19.0
2018-Feb-16 19:00N 48°18' W 070°48'1010.0 260 / 221007.0 -10.7-18.8
2018-Feb-16 18:00N 48°24' W 070°36'8 8.0 280 / 261005.5 -10.0-16.6
2018-Feb-16 17:00N 48°24' W 070°24'1010.0 280 / 271004.9 -9.9-15.1
2018-Feb-16 16:00N 48°18' W 070°12'1010.0 310 / 171005.6 -8.2-12.5
2018-Feb-16 15:00N 48°24' W 070°24'1212.0 280 / 241006.4 -8.6-13.3
2018-Feb-16 14:00N 48°24' W 070°42'4 4.0 300 / 201006.3 -8.3-12.3
2018-Feb-16 13:00N 48°24' W 070°48'0 0.0 270 / 61006.4 -6.7-11.3
2018-Feb-16 12:00N 48°24' W 070°48'0 0.0 290 / 71005.4 -6.1-10.8
2018-Feb-16 11:00N 48°24' W 070°48'0 0.0 290 / 71004.5 -4.5-9.3
2018-Feb-16 10:00N 48°24' W 070°48'0 0.0 280 / 51002.3 -3.2-7.3
2018-Feb-16 09:00N 48°24' W 070°48'0 0.0 280 / 71001.5 -1.6-5.2
2018-Feb-16 08:00N 48°24' W 070°48'0 0.0 280 / 11999.7 -0.2-3.3
2018-Feb-16 07:00N 48°24' W 070°48'0 0.0 280 / 8998.7 1.1-1.0
2018-Feb-16 06:00N 48°24' W 070°48'0 0.0 270 / 8997.3 1.5-0.0
2018-Feb-16 05:00N 48°24' W 070°48'0 0.0 280 / 4996.6 1.9 0.9
2018-Feb-16 04:00N 48°24' W 070°48'0 0.0 996.5 1.1 0.6
2018-Feb-16 03:00N 48°24' W 070°48'0 0.0 260 / 1996.4 1.1 0.4
2018-Feb-16 02:00N 48°24' W 070°48'0 0.0 130 / 2996.9 1.2 0.2
2018-Feb-16 01:00N 48°24' W 070°48'0 0.0 100 / 2996.9 1.5 0.1
2018-Feb-16 00:00N 48°24' W 070°48'0 0.0 110 / 3997.4 1.6 0.3
2018-Feb-15 23:00N 48°24' W 070°48'   100 / 3997.5 1.8-0.0
Track history (hours):
 
Tides and Currents Weather Stations Pressure Air Temp Water Temp Dewpoint Dewpoint Depression Visibility Wind Speed Wind Dir Waves Ship Positions

Oceanographic research ship CCGS Louis S. St-Laurent (Canada)

Detailed information on ship capabilities available from ARCUS's ALIAS (Arctic Logistics Information and Support) project.

Last reported at 2018-Feb-25 23:00 UTC. Time now 2018-Feb-25 23:46 UTC.
Position N 48°30' W 061°42'.

Length 119.63 m; beam 24.38 m; draft 9.9 m.

MMSI: 316165000.

Wind from 130 at 12 knots

Barometer 1028.6 mb
Air temperature -8.2 ° C
Dewpoint -12.3 ° C

Date/timePositionNaut miles runAvg speedWind from/ knotsBaromVisibWave heightAir tempDewpointWater temp
2018-Feb-25 23:00N 48°30' W 061°42'2019.9 130 / 121028.6 -8.2-12.3
2018-Feb-25 22:00N 48°42' W 062°06'4 4.0 130 / 181028.8 -8.4-13.0
2018-Feb-25 21:00N 48°42' W 062°00'4 4.0 130 / 91030.0 -7.8-13.2
2018-Feb-25 20:00N 48°42' W 062°06'4 4.0 090 / 71030.2 -5.1-12.4
2018-Feb-25 19:00N 48°42' W 062°00'0 0.0 090 / 11031.1 -5.5-12.3
2018-Feb-25 18:00N 48°42' W 062°00'8 7.9 100 / 51032.0 -8.2-13.3
2018-Feb-25 17:00N 48°42' W 062°12'2221.6 060 / 51031.9 -9.0-13.6
2018-Feb-25 16:00N 48°24' W 062°30'1414.4 050 / 71031.9 -9.3-13.7
2018-Feb-25 15:00N 48°12' W 062°42'1414.4 040 / 101032.2 -9.0-13.8
2018-Feb-25 14:00N 48°00' W 062°54'0 0.0 020 / 41032.4 -6.1-13.4
2018-Feb-25 13:00N 48°00' W 062°54'0 0.0 020 / 61032.2 -8.2-13.9
2018-Feb-25 12:00N 48°00' W 062°54'0 0.0 010 / 11031.9 -7.9-13.9
2018-Feb-25 11:00N 48°00' W 062°54'0 0.0 010 / 11031.3 -8.9-14.1
2018-Feb-25 10:00N 48°00' W 062°54'0 0.0 1030.9 -8.4-13.6
2018-Feb-25 09:00N 48°00' W 062°54'6 6.0 240 / 11030.0 -8.2-13.8
2018-Feb-25 08:00N 48°06' W 062°54'0 0.0 360 / 21028.0 -8.0-13.7
2018-Feb-25 07:00N 48°06' W 062°54'0 0.0 350 / 21026.9 -7.6-13.0
2018-Feb-25 06:00N 48°06' W 062°54'0 0.0 360 / 21026.1 -7.0-12.5
2018-Feb-25 05:00N 48°06' W 062°54'0 0.0 360 / 21024.8 -5.2-10.7
2018-Feb-25 04:00N 48°06' W 062°54'0 0.0 010 / 31023.2 -4.3-9.7
2018-Feb-25 03:00N 48°06' W 062°54'0 0.0 270 / 11021.1 -3.6-9.3
2018-Feb-25 02:00N 48°06' W 062°54'0 0.0 280 / 11019.6 -3.3-7.0
2018-Feb-25 01:00N 48°06' W 062°54'0 0.0 310 / 11017.2 -2.5-6.7
2018-Feb-24 23:00N 48°06' W 062°54'0 0.0 280 / 11014.9 -1.9-7.2
2018-Feb-24 22:00N 48°06' W 062°54'0 0.0 270 / 21013.1 -1.5-6.9
2018-Feb-24 21:00N 48°06' W 062°54'6 6.0 290 / 11011.8 -1.6-6.2
2018-Feb-24 20:00N 48°12' W 062°54'1212.0 280 / 21010.6 0.7-5.1
2018-Feb-24 19:00N 48°12' W 063°12'1717.0 310 / 191009.7 -0.6-5.9
2018-Feb-24 18:00N 48°24' W 063°30'1717.0 320 / 151008.8 -0.4-6.0
2018-Feb-24 17:00N 48°30' W 063°54'1414.4 310 / 191008.4 0.3-5.8
2018-Feb-24 16:00N 48°42' W 064°06'1313.3 310 / 221007.8 -0.7-6.2
2018-Feb-24 15:00N 48°48' W 064°24'0 0.0 270 / 91006.7 -0.7-6.4
2018-Feb-24 14:00N 48°48' W 064°24'0 0.0 300 / 131006.6 -3.3-5.7
2018-Feb-24 13:00N 48°48' W 064°24'0 0.0 280 / 51005.9 -5.7-7.8
2018-Feb-24 12:00N 48°48' W 064°24'0 0.0 280 / 41005.6 -6.9-8.5
2018-Feb-24 11:00N 48°48' W 064°24'0 0.0 1005.0 -5.7-8.0
2018-Feb-24 10:00N 48°48' W 064°24'0 0.0 1005.3 -4.7-7.5
2018-Feb-24 09:00N 48°48' W 064°24'0 0.0 050 / 11005.7 -4.1-7.0
2018-Feb-24 08:00N 48°48' W 064°24'0 0.0 250 / 61006.8 -4.3-7.7
2018-Feb-24 07:00N 48°48' W 064°24'0 0.0 020 / 21008.5 -4.1-7.7
2018-Feb-24 06:00N 48°48' W 064°24'0 0.0 240 / 91009.8 -4.2-8.0
2018-Feb-24 04:00N 48°48' W 064°24'0 0.0 190 / 11015.3 -5.0-7.9
2018-Feb-24 03:00N 48°48' W 064°24'0 0.0 310 / 51017.9 -5.7-7.5
2018-Feb-24 02:00N 48°48' W 064°24'0 0.0 280 / 51019.9 -4.0-12.6
2018-Feb-24 01:00N 48°48' W 064°24'0 0.0 260 / 61021.0 -3.8-12.9
2018-Feb-24 00:00N 48°48' W 064°24'0 0.0
2018-Feb-23 23:00N 48°48' W 064°24'0 0.0 230 / 31025.1 -3.9-12.5
2018-Feb-23 22:00N 48°48' W 064°24'0 0.0 190 / 61025.9 -3.3-12.2
2018-Feb-23 21:00N 48°48' W 064°24'0 0.0 110 / 61027.4 -3.3-11.8
2018-Feb-23 20:00N 48°48' W 064°24'0 0.0 090 / 101029.7 -5.0-9.9
2018-Feb-23 19:00N 48°48' W 064°24'0 0.0 110 / 111031.4 -4.8-13.0
2018-Feb-23 18:00N 48°48' W 064°24'0 0.0 110 / 131033.4 -5.7-12.8
2018-Feb-23 17:00N 48°48' W 064°24'0 0.0 110 / 81034.9 -6.1-14.7
2018-Feb-23 16:00N 48°48' W 064°24'0 0.0 060 / 11036.0 -4.0-13.6
2018-Feb-23 15:00N 48°48' W 064°24'0 0.0 290 / 31037.1 -7.8-16.3
2018-Feb-23 14:00N 48°48' W 064°24'0 0.0 250 / 81037.9 -9.6-16.9
2018-Feb-23 13:00N 48°48' W 064°24'0 0.0 260 / 61038.2 -11.6-17.4
2018-Feb-23 12:00N 48°48' W 064°24'0 0.0 260 / 91037.7 -11.5-17.3
2018-Feb-23 11:00N 48°48' W 064°24'0 0.0 270 / 91037.6 -11.1-16.9
2018-Feb-23 10:00N 48°48' W 064°24'0 0.0 290 / 81038.0 -11.1-16.8
2018-Feb-23 09:00N 48°48' W 064°24'0 0.0 240 / 11037.8 -13.5-17.6
2018-Feb-23 08:00N 48°48' W 064°24'0 0.0 080 / 11037.7 -14.6-18.4
2018-Feb-23 07:00N 48°48' W 064°24'0 0.0 250 / 71037.5 -11.3-16.9
2018-Feb-23 06:00N 48°48' W 064°24'0 0.0 290 / 31037.5 -14.7-18.6
2018-Feb-23 05:00N 48°48' W 064°24'0 0.0 270 / 81037.0 -11.4-17.0
2018-Feb-23 04:00N 48°48' W 064°24'0 0.0 280 / 21036.7 -12.5-17.7
2018-Feb-23 03:00N 48°48' W 064°24'0 0.0 270 / 71035.9 -10.1-17.0
2018-Feb-23 02:00N 48°48' W 064°24'0 0.0 280 / 101035.1 -9.5-17.0
2018-Feb-23 01:00N 48°48' W 064°24'0 0.0 280 / 121035.1 -9.0-17.3
2018-Feb-23 00:00N 48°48' W 064°24'0 0.0 290 / 91035.3 -8.8-17.3
2018-Feb-22 23:00N 48°48' W 064°24'0 0.0 340 / 121034.6 -8.6-16.8
2018-Feb-22 22:00N 48°48' W 064°24'0 0.0 320 / 111033.5 -7.4-16.5
2018-Feb-22 21:00N 48°48' W 064°24'0 0.0 320 / 121033.1 -6.2-16.6
2018-Feb-22 20:00N 48°48' W 064°24'0 0.0 320 / 181032.9 -5.6-16.4
2018-Feb-22 19:00N 48°48' W 064°24'0 0.0 310 / 161032.5 -5.2-15.5
2018-Feb-22 18:00N 48°48' W 064°24'0 0.0 310 / 161032.8 -5.6-15.5
2018-Feb-22 17:00N 48°48' W 064°24'0 0.0 310 / 121033.3 -6.8-15.0
2018-Feb-22 16:00N 48°48' W 064°24'0 0.0 310 / 81034.1 -8.9-15.8
2018-Feb-22 15:00N 48°48' W 064°24'0 0.0 310 / 131034.6 -10.6-16.9
2018-Feb-22 14:00N 48°48' W 064°24'0 0.0 310 / 191034.5 -11.5-17.4
2018-Feb-22 12:00N 48°48' W 064°24'0 0.0 310 / 161033.9 -12.2-17.8
2018-Feb-22 11:00N 48°48' W 064°24'0 0.0 310 / 221032.8 -12.2-18.1
2018-Feb-22 10:00N 48°48' W 064°24'0 0.0 310 / 121032.1 -11.3-16.7
2018-Feb-22 09:00N 48°48' W 064°24'0 0.0 290 / 121030.3 -11.2-17.2
2018-Feb-22 08:00N 48°48' W 064°24'0 0.0 300 / 241027.8 -10.9-17.1
2018-Feb-22 07:00N 48°48' W 064°24'0 0.0 300 / 231026.5 -10.3-16.9
2018-Feb-22 06:00N 48°48' W 064°24'0 0.0 300 / 131024.8 -9.4-15.8
2018-Feb-22 05:00N 48°48' W 064°24'0 0.0 310 / 331020.5 -8.1-14.3
2018-Feb-22 04:00N 48°48' W 064°24'0 0.0 310 / 371018.3 -6.2-13.2
2018-Feb-22 03:00N 48°48' W 064°24'0 0.0 310 / 381015.9 -4.0-11.6
2018-Feb-22 02:00N 48°48' W 064°24'0 0.0 310 / 381012.3 0.4-7.9
2018-Feb-22 01:00N 48°48' W 064°24'0 0.0 290 / 331010.0 4.6-4.9
2018-Feb-22 00:00N 48°48' W 064°24'0 0.0 280 / 21008.7 -0.1-1.3
2018-Feb-21 23:00N 48°48' W 064°24'0 0.0 170 / 11008.5 0.6-1.0
2018-Feb-21 22:00N 48°48' W 064°24'0 0.0 100 / 101007.6 0.2-1.0
2018-Feb-21 21:00N 48°48' W 064°24'0 0.0 110 / 81006.7 0.8-1.5
2018-Feb-21 20:00N 48°48' W 064°24'0 0.0 100 / 91006.6 -0.4-2.2
2018-Feb-21 19:00N 48°48' W 064°24'0 0.0 110 / 41007.1 1.2-1.9
2018-Feb-21 18:00N 48°48' W 064°24'0 0.0 100 / 31008.5 -0.7-3.4
2018-Feb-21 17:00N 48°48' W 064°24'0 0.0 100 / 31010.4 -1.9-4.5
2018-Feb-21 16:00N 48°48' W 064°24'1313.3 130 / 41012.8 -4.0-5.6
2018-Feb-21 15:00N 48°42' W 064°06'1716.9 180 / 121014.1 -3.9-4.4
2018-Feb-21 14:00N 48°30' W 063°48'0 0.0 160 / 181016.9 -4.4-5.0
2018-Feb-21 13:00N 48°30' W 063°48'4 2.0 200 / 141018.8 -5.0-5.7
2018-Feb-21 11:00N 48°30' W 063°54'0 0.0 140 / 121023.7 -5.9-6.8
2018-Feb-21 10:00N 48°30' W 063°54'0 0.0 130 / 141025.7 -6.0-7.2
2018-Feb-21 09:00N 48°30' W 063°54'0 0.0 120 / 171026.8 -5.9-8.0
2018-Feb-21 08:00N 48°30' W 063°54'0 0.0 110 / 131029.0 -6.4-8.6
2018-Feb-21 07:00N 48°30' W 063°54'6 6.0 120 / 161029.9 -6.5-9.2
2018-Feb-21 06:00N 48°24' W 063°54'0 0.0 120 / 151030.6 -6.7-9.7
2018-Feb-21 05:00N 48°24' W 063°54'0 0.0 100 / 151032.3 -6.9-10.6
2018-Feb-21 04:00N 48°24' W 063°54'0 0.0 100 / 141032.8 -7.0-11.5
2018-Feb-21 03:00N 48°24' W 063°54'0 0.0 100 / 131033.8 -7.0-12.6
2018-Feb-21 02:00N 48°24' W 063°54'0 0.0 110 / 131033.5 -6.7-11.4
2018-Feb-21 00:00N 48°24' W 063°54'6 6.0 060 / 131033.5 -5.7-10.6
2018-Feb-20 23:00N 48°30' W 063°54'7 7.2 090 / 141033.2 -5.6-10.0
2018-Feb-20 22:00N 48°24' W 064°00'8 8.0 030 / 201032.6 -5.3-10.2
2018-Feb-20 21:00N 48°24' W 064°12'1010.0 020 / 231032.1 -6.0-10.5
2018-Feb-20 20:00N 48°18' W 064°24'8 8.0 040 / 261031.1 -5.4-9.8
2018-Feb-20 19:00N 48°18' W 064°36'1010.0 070 / 261029.2 -4.1-8.0
2018-Feb-20 18:00N 48°12' W 064°48'1010.0 080 / 241030.1 -3.6-6.8
2018-Feb-20 17:00N 48°18' W 064°36'1313.4 070 / 211029.8 -2.6-7.1
2018-Feb-20 16:00N 48°24' W 064°18'1010.0 040 / 251030.5 -3.8-8.0
2018-Feb-20 15:00N 48°30' W 064°06'1818.0 360 / 181030.4 -1.9-6.7
2018-Feb-20 14:00N 48°48' W 064°06'1414.4 350 / 171030.8 -2.6-7.7
2018-Feb-20 13:00N 49°00' W 064°18'1716.8 340 / 171029.8 -3.4-7.6
2018-Feb-20 12:00N 49°12' W 064°36'1313.2 350 / 141029.5 -3.9-8.8
2018-Feb-20 11:00N 49°18' W 064°54'1716.7 350 / 101027.7 -2.4-6.5
2018-Feb-20 10:00N 49°24' W 065°18'1211.7 330 / 91026.6 -1.5-4.1
2018-Feb-20 09:00N 49°24' W 065°36'1211.7 310 / 161025.8 -1.3-5.0
2018-Feb-20 08:00N 49°24' W 065°54'1313.2 300 / 101024.6 0.1-2.0
2018-Feb-20 07:00N 49°18' W 066°12'1211.7 230 / 121023.6 0.1-1.0
2018-Feb-20 06:00N 49°18' W 066°30'1716.8 210 / 141023.3 -0.4-1.6
2018-Feb-20 05:00N 49°12' W 066°54'1313.2 240 / 81023.2 -0.1-1.8
2018-Feb-20 04:00N 49°06' W 067°12'8 7.9 250 / 71022.7 -0.0-2.4
2018-Feb-20 03:00N 49°06' W 067°24'2311.5 230 / 131021.9 0.6-2.3
2018-Feb-20 01:00N 48°54' W 067°54'2019.8 210 / 91021.0 1.4-3.1
2018-Feb-20 00:00N 48°42' W 068°18'1717.0 230 / 131020.7 2.6-2.6
2018-Feb-19 23:00N 48°36' W 068°42'1414.4 220 / 201020.6 3.1-3.3
2018-Feb-19 22:00N 48°24' W 068°54'1717.0 220 / 221020.4 2.7-2.9
2018-Feb-19 21:00N 48°18' W 069°18'2020.0 220 / 211020.5 2.2-2.9
2018-Feb-19 20:00N 48°06' W 069°42'1010.0 200 / 201019.9 2.0-3.2
2018-Feb-19 19:00N 48°12' W 069°54'1717.1 190 / 121019.5 6.0-5.7
2018-Feb-19 18:00N 48°18' W 070°18'1313.4 110 / 61020.4 -0.6-4.4
2018-Feb-19 17:00N 48°24' W 070°36'8 8.0 090 / 131021.0 -1.9-4.8
2018-Feb-19 16:00N 48°24' W 070°48'0 0.0 100 / 31022.6 -0.0-3.8
2018-Feb-19 15:00N 48°24' W 070°48'0 0.0 110 / 41023.6 -1.1-4.5
2018-Feb-19 14:00N 48°24' W 070°48'0 0.0 100 / 61025.2 -2.4-4.8
2018-Feb-19 13:00N 48°24' W 070°48'0 0.0 080 / 41025.7 -3.6-5.4
2018-Feb-19 12:00N 48°24' W 070°48'0 0.0 100 / 61026.5 -5.0-6.1
2018-Feb-19 11:00N 48°24' W 070°48'0 0.0 110 / 61027.3 -4.9-6.2
2018-Feb-19 10:00N 48°24' W 070°48'0 0.0 110 / 61027.4 -5.2-6.8
2018-Feb-19 09:00N 48°24' W 070°48'0 0.0 120 / 51027.1 -4.6-9.2
2018-Feb-19 08:00N 48°24' W 070°48'0 0.0 110 / 51027.0 -5.6-9.3
2018-Feb-19 07:00N 48°24' W 070°48'0 0.0 110 / 61027.8 -6.1-9.7
2018-Feb-19 06:00N 48°24' W 070°48'0 0.0 080 / 61028.1 -7.9-10.4
2018-Feb-19 05:00N 48°24' W 070°48'0 0.0 070 / 71028.4 -8.9-11.4
2018-Feb-19 04:00N 48°24' W 070°48'0 0.0 110 / 41028.4 -8.4-10.9
2018-Feb-19 03:00N 48°24' W 070°48'0 0.0 070 / 31027.9 -8.8-11.3
2018-Feb-19 02:00N 48°24' W 070°48'0 0.0 110 / 41027.4 -6.7-10.4
2018-Feb-19 01:00N 48°24' W 070°48'0 0.0 060 / 21026.8 -4.6-9.0
2018-Feb-19 00:00N 48°24' W 070°48'6 6.0 300 / 31025.8 -2.9-8.7
2018-Feb-18 23:00N 48°18' W 070°48'4 4.0 260 / 41024.7 -2.4-7.8
2018-Feb-18 22:00N 48°18' W 070°54'0 0.0 290 / 51023.1 -0.3-7.6
2018-Feb-18 21:00N 48°18' W 070°54'0 0.0 290 / 71021.5 0.1-6.8
2018-Feb-18 20:00N 48°18' W 070°54'0 0.0 160 / 31021.4 -1.3-4.8
2018-Feb-18 19:00N 48°18' W 070°54'0 0.0 150 / 11020.9 -2.6-4.7
2018-Feb-18 18:00N 48°18' W 070°54'0 0.0 090 / 11020.5 -3.6-5.6
2018-Feb-18 17:00N 48°18' W 070°54'0 0.0 070 / 21019.5 -3.2-5.8
2018-Feb-18 16:00N 48°18' W 070°54'0 0.0 1019.4 -4.1-6.5
2018-Feb-18 15:00N 48°18' W 070°54'0 0.0 150 / 11018.3 -5.4-8.3
2018-Feb-18 14:00N 48°18' W 070°54'0 0.0 130 / 11017.4 -7.0-10.9
2018-Feb-18 13:00N 48°18' W 070°54'0 0.0 1016.4 -7.1-11.0
2018-Feb-18 12:00N 48°18' W 070°54'0 0.0 270 / 21015.5 -7.1-11.4
2018-Feb-18 11:00N 48°18' W 070°54'0 0.0 300 / 21014.3 -7.7-11.6
2018-Feb-18 10:00N 48°18' W 070°54'0 0.0 120 / 21013.8 -8.5-13.3
2018-Feb-18 09:00N 48°18' W 070°54'0 0.0 110 / 41013.4 -9.0-13.6
2018-Feb-18 08:00N 48°18' W 070°54'0 0.0 120 / 41013.6 -8.6-14.1
2018-Feb-18 07:00N 48°18' W 070°54'0 0.0 120 / 61013.9 -8.2-13.6
2018-Feb-18 06:00N 48°18' W 070°54'0 0.0 120 / 31014.1 -8.2-13.4
2018-Feb-18 05:00N 48°18' W 070°54'4 4.0 090 / 21015.0 -6.2-11.9
2018-Feb-18 04:00N 48°18' W 070°48'0 0.0 070 / 161015.6 -7.1-12.6
2018-Feb-18 03:00N 48°18' W 070°48'0 0.0 070 / 151016.6 -7.1-12.8
2018-Feb-18 02:00N 48°18' W 070°48'0 0.0 070 / 141017.2 -7.0-12.7
2018-Feb-18 01:00N 48°18' W 070°48'0 0.0 070 / 131017.6 -7.6-12.1
2018-Feb-18 00:00N 48°18' W 070°48'0 0.0 070 / 151017.9 -7.5-12.8
2018-Feb-17 23:00N 48°18' W 070°48'0 0.0 070 / 151018.1 -7.1-14.0
2018-Feb-17 22:00N 48°18' W 070°48'0 0.0 070 / 151018.9 -7.1-14.9
2018-Feb-17 21:00N 48°18' W 070°48'0 0.0 070 / 151019.9 -7.3-15.1
2018-Feb-17 20:00N 48°18' W 070°48'7 7.2 070 / 171020.7 -9.0-15.1
2018-Feb-17 19:00N 48°24' W 070°42'4 4.0 160 / 61021.4 -6.6-15.2
2018-Feb-17 18:00N 48°24' W 070°48'0 0.0 100 / 21023.3 -9.3-15.0
2018-Feb-17 17:00N 48°24' W 070°48'7 7.2 050 / 121024.7 -13.2-17.1
2018-Feb-17 16:00N 48°18' W 070°54'17 8.5 080 / 131026.1 -14.2-17.9
2018-Feb-17 14:00N 48°24' W 070°30'1010.0 080 / 41027.4 -19.0-21.5
2018-Feb-17 13:00N 48°18' W 070°18'8 8.0 320 / 41026.9 -18.1-21.3
2018-Feb-17 12:00N 48°18' W 070°06'0 0.0 250 / 51026.4 -17.7-20.9
2018-Feb-17 11:00N 48°18' W 070°06'8 8.0 280 / 51025.3 -16.9-20.5
2018-Feb-17 10:00N 48°18' W 070°18'1010.0 340 / 31024.6 -16.7-20.4
2018-Feb-17 09:00N 48°24' W 070°30'8 8.0 300 / 11023.5 -16.9-20.4
2018-Feb-17 08:00N 48°24' W 070°42'7 7.2 340 / 31022.4 -16.5-20.4
2018-Feb-17 07:00N 48°18' W 070°48'4 4.0 270 / 41022.1 -15.0-19.1
2018-Feb-17 06:00N 48°18' W 070°54'0 0.0 260 / 51021.3 -14.7-18.7
2018-Feb-17 05:00N 48°18' W 070°54'0 0.0 280 / 71020.9 -14.9-20.1
2018-Feb-17 04:00N 48°18' W 070°54'0 0.0 270 / 81020.3 -14.2-19.9
2018-Feb-17 03:00N 48°18' W 070°54'0 0.0 270 / 101018.6 -13.7-19.2
2018-Feb-17 02:00N 48°18' W 070°54'0 0.0 240 / 131016.8 -13.3-19.5
2018-Feb-17 01:00N 48°18' W 070°54'0 0.0 160 / 11015.3 -12.7-18.8
2018-Feb-17 00:00N 48°18' W 070°54'0 0.0 150 / 11014.0 -12.1-18.8
2018-Feb-16 23:00N 48°18' W 070°54'0 0.0 210 / 11012.5 -11.3-18.9
2018-Feb-16 22:00N 48°18' W 070°54'0 0.0 240 / 21010.8 -10.8-19.1
2018-Feb-16 21:00N 48°18' W 070°54'0 0.0 190 / 11009.7 -9.7-18.4
2018-Feb-16 20:00N 48°18' W 070°54'4 4.0 250 / 21008.8 -9.5-19.0
2018-Feb-16 19:00N 48°18' W 070°48'1010.0 260 / 221007.0 -10.7-18.8
2018-Feb-16 18:00N 48°24' W 070°36'8 8.0 280 / 261005.5 -10.0-16.6
2018-Feb-16 17:00N 48°24' W 070°24'1010.0 280 / 271004.9 -9.9-15.1
2018-Feb-16 16:00N 48°18' W 070°12'1010.0 310 / 171005.6 -8.2-12.5
2018-Feb-16 15:00N 48°24' W 070°24'1212.0 280 / 241006.4 -8.6-13.3
2018-Feb-16 14:00N 48°24' W 070°42'4 4.0 300 / 201006.3 -8.3-12.3
2018-Feb-16 13:00N 48°24' W 070°48'0 0.0 270 / 61006.4 -6.7-11.3
2018-Feb-16 12:00N 48°24' W 070°48'0 0.0 290 / 71005.4 -6.1-10.8
2018-Feb-16 11:00N 48°24' W 070°48'0 0.0 290 / 71004.5 -4.5-9.3
2018-Feb-16 10:00N 48°24' W 070°48'0 0.0 280 / 51002.3 -3.2-7.3
2018-Feb-16 09:00N 48°24' W 070°48'0 0.0 280 / 71001.5 -1.6-5.2
2018-Feb-16 08:00N 48°24' W 070°48'0 0.0 280 / 11999.7 -0.2-3.3
2018-Feb-16 07:00N 48°24' W 070°48'0 0.0 280 / 8998.7 1.1-1.0
2018-Feb-16 06:00N 48°24' W 070°48'0 0.0 270 / 8997.3 1.5-0.0
2018-Feb-16 05:00N 48°24' W 070°48'0 0.0 280 / 4996.6 1.9 0.9
2018-Feb-16 04:00N 48°24' W 070°48'0 0.0 996.5 1.1 0.6
2018-Feb-16 03:00N 48°24' W 070°48'0 0.0 260 / 1996.4 1.1 0.4
2018-Feb-16 02:00N 48°24' W 070°48'0 0.0 130 / 2996.9 1.2 0.2
2018-Feb-16 01:00N 48°24' W 070°48'0 0.0 100 / 2996.9 1.5 0.1
2018-Feb-16 00:00N 48°24' W 070°48'0 0.0 110 / 3997.4 1.6 0.3
2018-Feb-15 23:00N 48°24' W 070°48'   100 / 3997.5 1.8-0.0

Dump ship's entire track history